MMCP/CPE METAR and TAF weather

Enter ICAO airport designator
Station Type Date Time Source
MMCP METAR 2020/01/18 23:46 UTC NOAA

MMCP 182346Z 01010KT 7SM FEW300 27/17 A3000 RMK SLP146 52002 954 8/001 HZY


Station Type Date Time Source
MMCP Decoded METAR 2020/01/18 23:46 UTC NOAA

Campeche, Camp., Mexico (MMCP) 19-51N 090-33W
Jan 18, 2020 - 06:46 PM EST / 2020.01.18 2346 UTC
Wind: from the N (010 degrees) at 12 MPH (10 KT):0
Visibility: 7 mile(s):0
Sky conditions: mostly clear
Temperature: 80 F (27 C)
Dew Point: 62 F (17 C)
Relative Humidity: 54%
Pressure (altimeter): 30 in. Hg (1015 hPa)
Pressure tendency: 0.01 inches (0.2 hPa) higher than three hours ago
ob: MMCP 182346Z 01010KT 7SM FEW300 27/17 A3000 RMK SLP146 52002 954 8/001 HZY
cycle: 0

Station Type Date Time Source
MMCP TAF 2020/01/18 18:18 UTC NOAA

TAF MMCP 181711Z 1818/1918 11010KT 6SM HZ SCT030
FM182100 34015KT 6SM HZ SCT030CB BKN080
TEMPO 1822/1902 6SM RA
FM190300 12010KT P6SM SCT030 SCT080
BECMG 1905/1906 09005KT SCT080
FM191000 09008KT 6SM HZ SCT015

Example: see airport list